createdAt,value
2023-02-11T00:05:08.128Z,39.30
2023-02-11T00:15:14.235Z,38.70
2023-02-11T00:25:17.453Z,41.67
2023-02-11T00:35:21.553Z,37.87
2023-02-11T00:45:24.646Z,45.53
2023-02-11T00:55:29.100Z,36.33
2023-02-11T01:05:32.463Z,39.63
2023-02-11T01:15:37.290Z,29.97
2023-02-11T01:25:40.425Z,31.23
2023-02-11T01:35:45.660Z,35.00
2023-02-11T01:46:01.631Z,35.77
2023-02-11T01:56:25.843Z,32.43
2023-02-11T02:06:34.547Z,45.73
2023-02-11T02:16:39.383Z,33.93
2023-02-11T02:27:09.594Z,32.43
2023-02-11T02:37:18.452Z,34.65
2023-02-11T02:47:21.419Z,31.20
2023-02-11T02:57:33.929Z,35.90
2023-02-11T03:07:43.965Z,36.33
2023-02-11T03:17:51.883Z,33.67
2023-02-11T03:28:02.217Z,30.57
2023-02-11T03:38:10.586Z,35.93
2023-02-11T03:48:17.148Z,32.60
2023-02-11T03:58:22.012Z,33.33
2023-02-11T04:08:25.206Z,31.00
2023-02-11T04:18:29.468Z,27.10
2023-02-11T04:28:32.560Z,35.13
2023-02-11T04:38:36.913Z,28.20
2023-02-11T04:48:39.937Z,25.93
2023-02-11T04:58:44.352Z,28.37
2023-02-11T05:08:47.580Z,35.50
2023-02-11T05:18:52.699Z,28.37
2023-02-11T05:28:55.917Z,28.83
2023-02-11T05:39:00.730Z,30.37
2023-02-11T05:49:03.932Z,28.97
2023-02-11T05:59:08.300Z,35.37
2023-02-11T06:09:14.050Z,32.50
2023-02-11T06:19:18.588Z,30.13
2023-02-11T06:29:21.998Z,28.43
2023-02-11T06:39:26.556Z,26.97
2023-02-11T06:49:29.545Z,35.60
2023-02-11T06:59:34.046Z,28.40
2023-02-11T07:09:37.144Z,26.43
2023-02-11T07:19:42.933Z,29.50
2023-02-11T07:29:46.997Z,27.93
2023-02-11T07:39:51.326Z,27.73
2023-02-11T07:49:56.576Z,23.30
2023-02-11T08:00:01.120Z,22.93
2023-02-11T08:10:13.885Z,22.50
2023-02-11T08:20:18.540Z,22.67
2023-02-11T08:30:22.137Z,25.93
2023-02-11T08:40:26.520Z,26.43
2023-02-11T08:50:30.187Z,23.47
2023-02-11T09:00:34.818Z,20.67
2023-02-11T09:10:38.605Z,20.17
2023-02-11T09:20:42.749Z,22.57
2023-02-11T09:30:45.918Z,20.90
2023-02-11T09:40:51.597Z,21.43
2023-02-11T09:50:59.367Z,23.00
2023-02-11T10:01:09.731Z,21.27
2023-02-11T10:11:31.169Z,25.13
2023-02-11T10:21:46.734Z,28.27
2023-02-11T10:31:52.643Z,23.20
2023-02-11T10:42:00.604Z,22.13
2023-02-11T10:52:19.739Z,17.23
2023-02-11T11:02:32.023Z,20.52
2023-02-11T11:12:42.165Z,34.53
2023-02-11T11:22:47.541Z,28.60
2023-02-11T11:32:51.140Z,24.27
2023-02-11T11:43:22.611Z,26.60
2023-02-11T11:53:34.574Z,29.20
2023-02-11T12:04:21.536Z,25.90
2023-02-11T12:14:36.192Z,25.27
2023-02-11T12:25:04.306Z,22.47
2023-02-11T12:35:31.667Z,25.37
2023-02-11T12:45:48.165Z,27.13
2023-02-11T12:55:58.937Z,22.47
2023-02-11T13:06:08.102Z,28.33
2023-02-11T13:16:22.031Z,33.42
2023-02-11T13:26:32.194Z,36.23
2023-02-11T13:36:36.903Z,32.53
2023-02-11T13:46:54.211Z,37.90
2023-02-11T13:57:35.898Z,34.23
2023-02-11T14:07:58.374Z,35.77
2023-02-11T14:18:04.520Z,35.33
2023-02-11T14:28:16.545Z,36.87
2023-02-11T14:38:27.796Z,35.40
2023-02-11T14:48:32.978Z,35.90
2023-02-11T14:58:37.836Z,37.77
2023-02-11T15:08:46.501Z,35.17
2023-02-11T15:18:53.061Z,36.20
2023-02-11T15:28:56.233Z,33.17
2023-02-11T15:39:20.815Z,33.77
2023-02-11T15:49:24.989Z,34.63
2023-02-11T15:59:32.788Z,35.13
2023-02-11T16:09:36.699Z,34.07
2023-02-11T16:19:47.686Z,34.90
2023-02-11T16:29:51.395Z,33.20
2023-02-11T16:39:56.244Z,42.47
2023-02-11T16:50:00.214Z,37.70
2023-02-11T17:00:06.487Z,33.23
2023-02-11T17:10:15.206Z,36.20
2023-02-11T17:20:21.215Z,24.30
2023-02-11T17:30:25.010Z,33.47
2023-02-11T17:40:29.239Z,34.43
2023-02-11T17:50:32.304Z,50.87
2023-02-11T18:00:36.510Z,42.33
2023-02-11T18:10:42.649Z,35.67
2023-02-11T18:20:56.395Z,34.03
2023-02-11T18:30:59.898Z,33.60
2023-02-11T18:41:05.284Z,39.87
2023-02-11T18:51:14.615Z,40.03
2023-02-11T19:01:22.914Z,38.92
2023-02-11T19:11:47.589Z,37.60
2023-02-11T19:21:52.179Z,39.00
2023-02-11T19:31:56.615Z,46.67
2023-02-11T19:42:00.853Z,43.13
2023-02-11T19:52:03.794Z,39.93
2023-02-11T20:02:08.146Z,36.50
2023-02-11T20:12:12.059Z,46.47
2023-02-11T20:22:18.036Z,41.87
2023-02-11T20:32:21.724Z,47.10
2023-02-11T20:42:26.457Z,41.10
2023-02-11T20:52:29.977Z,44.17
2023-02-11T21:02:34.566Z,40.60
2023-02-11T21:12:38.403Z,40.77
2023-02-11T21:22:43.072Z,45.77
2023-02-11T21:32:46.181Z,41.60
2023-02-11T21:42:50.431Z,38.80
2023-02-11T21:52:53.409Z,43.87
2023-02-11T22:02:58.064Z,44.80
2023-02-11T22:13:02.081Z,49.13
2023-02-11T22:23:06.678Z,50.97
2023-02-11T22:33:09.922Z,57.10
2023-02-11T22:43:14.233Z,52.43
2023-02-11T22:53:17.929Z,55.53
2023-02-11T23:03:22.323Z,57.60
2023-02-11T23:13:25.479Z,50.43
2023-02-11T23:23:30.131Z,60.20
2023-02-11T23:33:33.303Z,55.57
2023-02-11T23:43:37.901Z,57.33
2023-02-11T23:53:41.460Z,56.27
